Time;durP1;ratioP1;P1;durP2;ratioP2;P2;SDS_P1;SDS_P2;PMS_P1;PMS_P2;Temp;Humidity;BMP_temperature;BMP_pressure;BME280_temperature;BME280_humidity;BME280_pressure;Samples;Min_cycle;Max_cycle;Signal;HPM_P1;HPM_P2
2021/08/22 00:00:34;;;;;;;5.82;4.45;;;;;;;;;;5023134;28;20053;-65
2021/08/22 00:03:00;;;;;;;4.78;3.83;;;;;;;;;;5031349;28;20037;-67
2021/08/22 00:05:26;;;;;;;6.05;4.00;;;;;;;;;;5034820;28;20095;-67
2021/08/22 00:07:52;;;;;;;8.60;4.30;;;;;;;;;;5022169;28;20096;-67
2021/08/22 00:10:18;;;;;;;5.97;4.20;;;;;;;;;;5028530;28;20032;-67
2021/08/22 00:12:44;;;;;;;7.25;4.35;;;;;;;;;;5028601;28;20083;-67
2021/08/22 00:15:11;;;;;;;5.30;4.03;;;;;;;;;;5021688;28;20026;-67
2021/08/22 00:17:39;;;;;;;4.82;3.95;;;;;;;;;;5027909;28;20167;-68
2021/08/22 00:20:05;;;;;;;6.53;4.43;;;;;;;;;;5021057;28;20836;-67
2021/08/22 00:22:31;;;;;;;8.65;4.25;;;;;;;;;;5028809;28;20037;-67
2021/08/22 00:24:57;;;;;;;5.32;4.15;;;;;;;;;;5033360;28;20029;-65
2021/08/22 00:27:24;;;;;;;4.88;3.88;;;;;;;;;;5024368;28;20025;-61
2021/08/22 00:29:50;;;;;;;7.15;4.57;;;;;;;;;;5019081;28;20441;-68
2021/08/22 00:32:16;;;;;;;4.82;3.67;;;;;;;;;;5023321;28;20360;-65
2021/08/22 00:34:42;;;;;;;7.18;4.50;;;;;;;;;;5022634;28;20033;-66
2021/08/22 00:37:09;;;;;;;6.35;4.10;;;;;;;;;;5031361;28;20390;-66
2021/08/22 00:39:35;;;;;;;6.15;3.88;;;;;;;;;;5029872;28;20030;-66
2021/08/22 00:42:04;;;;;;;5.60;4.07;;;;;;;;;;5021889;28;20046;-64
2021/08/22 00:44:30;;;;;;;8.23;4.45;;;;;;;;;;5016221;28;20037;-65
2021/08/22 00:46:56;;;;;;;5.95;3.90;;;;;;;;;;5031355;28;20049;-66
2021/08/22 00:49:26;;;;;;;4.95;4.18;;;;;;;;;;5027703;28;20025;-67
2021/08/22 00:51:52;;;;;;;6.32;4.05;;;;;;;;;;5020210;28;20308;-63
2021/08/22 00:54:18;;;;;;;5.28;4.20;;;;;;;;;;5028975;28;20391;-65
2021/08/22 00:56:45;;;;;;;7.25;4.10;;;;;;;;;;5027924;28;20021;-65
2021/08/22 00:59:11;;;;;;;16.70;4.95;;;;;;;;;;5029567;28;20108;-65
2021/08/22 01:01:38;;;;;;;9.95;4.53;;;;;;;;;;5022290;28;20037;-63
2021/08/22 01:04:18;;;;;;;7.10;4.55;;;;;;;;;;5021549;28;20033;-67
2021/08/22 01:06:47;;;;;;;7.07;4.45;;;;;;;;;;5015074;28;20037;-67
2021/08/22 01:09:26;;;;;;;7.40;4.30;;;;;;;;;;5030528;28;20419;-66
2021/08/22 01:11:52;;;;;;;9.57;4.55;;;;;;;;;;5018842;28;20498;-65
2021/08/22 01:14:21;;;;;;;5.90;4.60;;;;;;;;;;5027038;28;20037;-68
2021/08/22 01:16:51;;;;;;;4.50;3.97;;;;;;;;;;5026309;28;20037;-66
2021/08/22 01:19:21;;;;;;;5.00;3.90;;;;;;;;;;5023858;28;20030;-66
2021/08/22 01:21:48;;;;;;;9.10;4.28;;;;;;;;;;5029408;28;20060;-67
2021/08/22 01:24:17;;;;;;;8.07;4.30;;;;;;;;;;5019048;28;20123;-67
2021/08/22 01:26:44;;;;;;;6.28;4.28;;;;;;;;;;5023718;28;20030;-65
2021/08/22 01:29:10;;;;;;;6.53;4.28;;;;;;;;;;5030267;28;20027;-66
2021/08/22 01:31:41;;;;;;;5.82;4.05;;;;;;;;;;5022196;28;20025;-67
2021/08/22 01:34:07;;;;;;;8.90;4.40;;;;;;;;;;5020462;28;20033;-68
2021/08/22 01:36:35;;;;;;;6.07;4.40;;;;;;;;;;5022370;28;20184;-67
2021/08/22 01:39:01;;;;;;;7.78;4.30;;;;;;;;;;5028468;28;20029;-60
2021/08/22 01:41:27;;;;;;;6.68;4.38;;;;;;;;;;5021205;28;20132;-65
2021/08/22 01:43:54;;;;;;;6.97;4.43;;;;;;;;;;5021262;28;20029;-66
2021/08/22 01:46:24;;;;;;;6.22;4.00;;;;;;;;;;5025170;28;20029;-68
2021/08/22 01:48:51;;;;;;;7.93;4.32;;;;;;;;;;5016890;28;20030;-66
2021/08/22 01:51:17;;;;;;;6.00;4.40;;;;;;;;;;5026717;28;20037;-66
2021/08/22 01:53:43;;;;;;;7.55;4.45;;;;;;;;;;5026471;28;20461;-67
2021/08/22 01:56:09;;;;;;;6.57;4.28;;;;;;;;;;5030349;28;20029;-68
2021/08/22 01:58:35;;;;;;;5.13;4.00;;;;;;;;;;5024127;28;20029;-67
2021/08/22 02:01:01;;;;;;;7.00;4.47;;;;;;;;;;5021849;28;20491;-63
2021/08/22 02:03:27;;;;;;;7.03;4.63;;;;;;;;;;5017887;28;20040;-63
2021/08/22 02:05:56;;;;;;;8.02;4.60;;;;;;;;;;5024756;28;20025;-65
2021/08/22 02:08:22;;;;;;;6.40;4.00;;;;;;;;;;5032159;28;20078;-64
2021/08/22 02:10:52;;;;;;;5.82;4.50;;;;;;;;;;5019769;28;20026;-63
2021/08/22 02:13:20;;;;;;;5.35;4.15;;;;;;;;;;5019214;28;20030;-64
2021/08/22 02:15:47;;;;;;;7.55;4.40;;;;;;;;;;5020438;28;20053;-63
2021/08/22 02:18:16;;;;;;;7.40;4.20;;;;;;;;;;5024797;28;20197;-66
2021/08/22 02:20:43;;;;;;;6.85;4.25;;;;;;;;;;5021744;28;20045;-66
2021/08/22 02:23:10;;;;;;;6.72;4.25;;;;;;;;;;5023938;28;20045;-65
2021/08/22 02:25:36;;;;;;;5.72;4.22;;;;;;;;;;5016411;28;20030;-65
2021/08/22 02:28:02;;;;;;;6.35;4.20;;;;;;;;;;5003916;28;20426;-65
2021/08/22 02:30:32;;;;;;;6.22;4.10;;;;;;;;;;5025322;28;20025;-65
2021/08/22 02:32:58;;;;;;;8.35;4.22;;;;;;;;;;5028664;28;20124;-66
2021/08/22 02:35:24;;;;;;;9.15;4.35;;;;;;;;;;5020787;28;20030;-65
2021/08/22 02:37:50;;;;;;;5.07;4.18;;;;;;;;;;5027200;28;20926;-66
2021/08/22 02:40:17;;;;;;;8.98;4.10;;;;;;;;;;5013351;28;20365;-67
2021/08/22 02:42:43;;;;;;;8.55;4.78;;;;;;;;;;5009027;28;20092;-65
2021/08/22 02:45:09;;;;;;;7.50;4.50;;;;;;;;;;5009385;28;20026;-66
2021/08/22 02:47:35;;;;;;;9.40;5.13;;;;;;;;;;5002100;28;20052;-67
2021/08/22 02:50:01;;;;;;;9.60;4.57;;;;;;;;;;5011154;28;20068;-67
2021/08/22 02:52:27;;;;;;;8.00;4.50;;;;;;;;;;5004145;28;20036;-67
2021/08/22 02:54:53;;;;;;;6.32;4.28;;;;;;;;;;5006546;28;20096;-66
2021/08/22 02:57:20;;;;;;;6.65;4.45;;;;;;;;;;4993490;28;20026;-65
2021/08/22 02:59:46;;;;;;;7.30;4.38;;;;;;;;;;5011249;28;20026;-66
2021/08/22 03:02:12;;;;;;;12.25;4.60;;;;;;;;;;5004163;28;20136;-66
2021/08/22 03:04:38;;;;;;;7.85;5.15;;;;;;;;;;5008099;28;20106;-66
2021/08/22 03:07:05;;;;;;;4.60;4.07;;;;;;;;;;5003089;28;20038;-61
2021/08/22 03:09:31;;;;;;;5.57;4.63;;;;;;;;;;4998644;28;20022;-65
2021/08/22 03:11:57;;;;;;;5.78;4.40;;;;;;;;;;5006834;28;20022;-66
2021/08/22 03:14:23;;;;;;;5.95;4.80;;;;;;;;;;5003459;28;20053;-66
2021/08/22 03:16:49;;;;;;;6.05;4.68;;;;;;;;;;5002060;28;20031;-67
2021/08/22 03:19:15;;;;;;;6.68;4.13;;;;;;;;;;5002432;28;20053;-67
2021/08/22 03:21:44;;;;;;;9.13;4.75;;;;;;;;;;5001587;28;20493;-67
2021/08/22 03:24:11;;;;;;;7.53;4.20;;;;;;;;;;5008718;28;20205;-65
2021/08/22 03:26:37;;;;;;;8.05;4.40;;;;;;;;;;5003638;28;20357;-62
2021/08/22 03:29:03;;;;;;;6.18;4.60;;;;;;;;;;5001728;28;20037;-66
2021/08/22 03:31:29;;;;;;;5.05;4.15;;;;;;;;;;5009754;28;20026;-64
2021/08/22 03:33:55;;;;;;;6.05;4.07;;;;;;;;;;5005914;28;20100;-67
2021/08/22 03:36:21;;;;;;;9.93;4.47;;;;;;;;;;5014348;28;20092;-66
2021/08/22 03:38:47;;;;;;;6.47;4.53;;;;;;;;;;5010075;28;20018;-67
2021/08/22 03:41:14;;;;;;;7.72;4.53;;;;;;;;;;5012952;28;20494;-67
2021/08/22 03:43:40;;;;;;;7.70;4.63;;;;;;;;;;5011326;28;20022;-64
2021/08/22 03:46:06;;;;;;;7.97;4.68;;;;;;;;;;5004431;28;20442;-65
2021/08/22 03:48:32;;;;;;;5.55;4.38;;;;;;;;;;5002826;28;20468;-65
2021/08/22 03:50:58;;;;;;;6.53;4.35;;;;;;;;;;5002861;28;20021;-67
2021/08/22 03:53:24;;;;;;;9.10;4.90;;;;;;;;;;5007029;28;20034;-62
2021/08/22 03:55:50;;;;;;;6.68;4.40;;;;;;;;;;5012043;28;20033;-62
2021/08/22 03:58:16;;;;;;;8.02;4.55;;;;;;;;;;5006659;28;20030;-66
2021/08/22 04:00:43;;;;;;;7.72;4.68;;;;;;;;;;4999700;28;20716;-66
2021/08/22 04:03:09;;;;;;;7.45;4.53;;;;;;;;;;5008972;28;20030;-67
2021/08/22 04:05:35;;;;;;;9.75;5.07;;;;;;;;;;5005493;28;20031;-67
2021/08/22 04:08:01;;;;;;;5.80;4.45;;;;;;;;;;5006020;28;20146;-65
2021/08/22 04:10:27;;;;;;;6.60;4.15;;;;;;;;;;5011352;28;20034;-65
2021/08/22 04:12:54;;;;;;;6.82;4.82;;;;;;;;;;5004150;28;20030;-67
2021/08/22 04:15:20;;;;;;;6.63;4.78;;;;;;;;;;5001553;28;20107;-67
2021/08/22 04:17:46;;;;;;;8.07;4.57;;;;;;;;;;5011962;28;20022;-66
2021/08/22 04:20:13;;;;;;;8.48;4.47;;;;;;;;;;5009576;28;20030;-63
2021/08/22 04:22:39;;;;;;;8.05;4.70;;;;;;;;;;5004426;28;20041;-67
2021/08/22 04:25:10;;;;;;;6.00;4.63;;;;;;;;;;5013365;28;20033;-67
2021/08/22 04:27:36;;;;;;;7.40;4.68;;;;;;;;;;5012277;28;20041;-66
2021/08/22 04:30:03;;;;;;;6.80;4.68;;;;;;;;;;5006092;28;21585;-67
2021/08/22 04:32:29;;;;;;;7.50;4.65;;;;;;;;;;5004981;28;20018;-60
2021/08/22 04:34:55;;;;;;;8.85;4.75;;;;;;;;;;5012079;28;20510;-67
2021/08/22 04:37:21;;;;;;;7.13;4.68;;;;;;;;;;5011751;28;20069;-65
2021/08/22 04:39:47;;;;;;;7.38;4.65;;;;;;;;;;5010775;28;20029;-65
2021/08/22 04:42:13;;;;;;;8.57;4.88;;;;;;;;;;5005939;28;20566;-65
2021/08/22 04:44:42;;;;;;;7.13;4.70;;;;;;;;;;5014955;28;20072;-66
2021/08/22 04:47:08;;;;;;;8.75;4.40;;;;;;;;;;5007773;28;20022;-61
2021/08/22 04:49:34;;;;;;;6.28;4.60;;;;;;;;;;5014864;28;20022;-66
2021/08/22 04:52:00;;;;;;;7.80;4.85;;;;;;;;;;5013701;28;20030;-61
2021/08/22 04:54:26;;;;;;;7.20;4.80;;;;;;;;;;5012055;28;20026;-67
2021/08/22 04:56:52;;;;;;;7.45;4.82;;;;;;;;;;5012845;28;20104;-67
2021/08/22 04:59:19;;;;;;;6.82;4.75;;;;;;;;;;5014448;28;20084;-61
2021/08/22 05:01:45;;;;;;;12.30;4.70;;;;;;;;;;5007413;28;20044;-60
2021/08/22 05:04:11;;;;;;;13.88;4.93;;;;;;;;;;5012429;28;20116;-61
2021/08/22 05:06:37;;;;;;;14.35;4.93;;;;;;;;;;5007724;28;20038;-64
2021/08/22 05:09:05;;;;;;;9.95;5.13;;;;;;;;;;5010040;28;20041;-65
2021/08/22 05:11:31;;;;;;;8.50;4.55;;;;;;;;;;5010404;28;20033;-63
2021/08/22 05:13:57;;;;;;;7.63;4.50;;;;;;;;;;5010547;28;20504;-63
2021/08/22 05:16:23;;;;;;;9.50;5.10;;;;;;;;;;5018154;28;20071;-63
2021/08/22 05:18:49;;;;;;;5.97;4.60;;;;;;;;;;5013775;28;20081;-66
2021/08/22 05:21:15;;;;;;;12.98;5.13;;;;;;;;;;5013967;28;20038;-65
2021/08/22 05:23:41;;;;;;;9.85;4.90;;;;;;;;;;5006359;28;20037;-64
2021/08/22 05:26:07;;;;;;;13.60;5.40;;;;;;;;;;5006419;28;20522;-65
2021/08/22 05:28:33;;;;;;;17.30;5.25;;;;;;;;;;5010597;28;20049;-68
2021/08/22 05:31:00;;;;;;;15.45;6.05;;;;;;;;;;5013700;28;20388;-72
2021/08/22 05:33:26;;;;;;;19.92;5.68;;;;;;;;;;5011157;28;20034;-71
2021/08/22 05:35:52;;;;;;;15.55;5.15;;;;;;;;;;5013026;28;20026;-64
2021/08/22 05:38:18;;;;;;;14.45;4.78;;;;;;;;;;5012368;28;20123;-62
2021/08/22 05:40:44;;;;;;;17.83;5.22;;;;;;;;;;5012601;28;20468;-61
2021/08/22 05:43:10;;;;;;;28.77;5.78;;;;;;;;;;5012124;28;20069;-62
2021/08/22 05:45:36;;;;;;;21.15;6.22;;;;;;;;;;5011375;28;20104;-69
2021/08/22 05:48:02;;;;;;;12.13;5.00;;;;;;;;;;5008938;28;20170;-62
2021/08/22 05:50:28;;;;;;;8.90;4.57;;;;;;;;;;5006226;28;20041;-65
2021/08/22 05:52:54;;;;;;;9.10;4.47;;;;;;;;;;5008689;28;20053;-63
2021/08/22 05:55:20;;;;;;;14.18;5.75;;;;;;;;;;5018424;28;20025;-66
2021/08/22 05:57:47;;;;;;;11.13;5.20;;;;;;;;;;5017360;28;20109;-65
2021/08/22 06:00:13;;;;;;;8.40;5.10;;;;;;;;;;5005852;28;20034;-63
2021/08/22 06:02:39;;;;;;;17.38;11.60;;;;;;;;;;5011812;28;20034;-62
2021/08/22 06:05:05;;;;;;;18.55;12.13;;;;;;;;;;5020085;28;20026;-62
2021/08/22 06:07:33;;;;;;;8.85;6.38;;;;;;;;;;5020653;28;20045;-62
2021/08/22 06:09:59;;;;;;;13.88;6.97;;;;;;;;;;5011363;28;20100;-62
2021/08/22 06:12:25;;;;;;;12.27;5.90;;;;;;;;;;5008466;28;20510;-79
2021/08/22 06:14:52;;;;;;;13.50;5.90;;;;;;;;;;5010858;28;20026;-82
2021/08/22 06:17:18;;;;;;;12.60;5.65;;;;;;;;;;5017041;28;20087;-78
2021/08/22 06:19:44;;;;;;;14.32;5.85;;;;;;;;;;5009874;28;20037;-82
2021/08/22 06:22:10;;;;;;;10.30;5.85;;;;;;;;;;5012975;28;20041;-81
2021/08/22 06:24:36;;;;;;;15.18;5.65;;;;;;;;;;5011355;28;20032;-82
2021/08/22 06:27:02;;;;;;;15.00;6.38;;;;;;;;;;5009988;28;20112;-82
2021/08/22 06:29:28;;;;;;;8.20;5.28;;;;;;;;;;5011659;28;20053;-77
2021/08/22 06:31:54;;;;;;;8.15;4.85;;;;;;;;;;5010291;28;20057;-76
2021/08/22 06:34:20;;;;;;;10.10;5.20;;;;;;;;;;5010785;28;20030;-62
2021/08/22 06:36:48;;;;;;;8.57;5.43;;;;;;;;;;5010607;28;20109;-67
2021/08/22 06:39:14;;;;;;;6.55;4.35;;;;;;;;;;5009627;28;20022;-60
2021/08/22 06:41:40;;;;;;;11.43;4.35;;;;;;;;;;5005000;28;20046;-64
2021/08/22 06:44:06;;;;;;;11.48;4.50;;;;;;;;;;5006603;28;20042;-64
2021/08/22 06:46:32;;;;;;;8.18;4.50;;;;;;;;;;5002033;28;20105;-66
2021/08/22 06:48:59;;;;;;;8.25;4.65;;;;;;;;;;5004173;28;20081;-83
2021/08/22 06:51:25;;;;;;;6.90;4.38;;;;;;;;;;4989395;28;20480;-65
2021/08/22 06:53:51;;;;;;;11.15;4.65;;;;;;;;;;5008449;28;20045;-78
2021/08/22 06:56:17;;;;;;;13.80;4.90;;;;;;;;;;5002080;28;20022;-71
2021/08/22 06:58:43;;;;;;;10.45;5.05;;;;;;;;;;5003788;28;20543;-66
2021/08/22 07:01:09;;;;;;;9.43;5.60;;;;;;;;;;4987849;28;20062;-85
2021/08/22 07:03:35;;;;;;;12.60;5.90;;;;;;;;;;5002484;28;20025;-81
2021/08/22 07:06:01;;;;;;;10.25;6.13;;;;;;;;;;5003880;28;20022;-81
2021/08/22 07:08:27;;;;;;;15.82;5.85;;;;;;;;;;5007286;28;20072;-90
2021/08/22 07:10:53;;;;;;;8.55;5.00;;;;;;;;;;4996708;28;20488;-78
2021/08/22 07:13:19;;;;;;;14.75;5.38;;;;;;;;;;5009985;28;20439;-82
2021/08/22 07:15:45;;;;;;;7.38;5.13;;;;;;;;;;4991970;28;20073;-80
2021/08/22 07:18:11;;;;;;;14.43;6.05;;;;;;;;;;5012049;28;20037;-84
2021/08/22 07:20:37;;;;;;;15.60;5.40;;;;;;;;;;4988823;28;20018;-71
2021/08/22 07:23:04;;;;;;;14.20;5.70;;;;;;;;;;5004575;28;20049;-76
2021/08/22 07:25:30;;;;;;;39.08;7.47;;;;;;;;;;5005200;28;20033;-77
2021/08/22 07:27:56;;;;;;;14.15;5.47;;;;;;;;;;5010664;28;20030;-76
2021/08/22 07:30:22;;;;;;;8.15;5.28;;;;;;;;;;5007738;28;20475;-76
2021/08/22 07:32:49;;;;;;;13.48;5.68;;;;;;;;;;5013110;28;20059;-71
2021/08/22 07:35:15;;;;;;;13.05;5.95;;;;;;;;;;5009019;28;20049;-75
2021/08/22 07:37:41;;;;;;;7.97;5.57;;;;;;;;;;5005694;28;20026;-62
2021/08/22 07:40:07;;;;;;;12.23;6.00;;;;;;;;;;5003379;28;20462;-61
2021/08/22 07:42:33;;;;;;;12.82;6.18;;;;;;;;;;5007126;28;20046;-66
2021/08/22 07:44:59;;;;;;;11.13;5.75;;;;;;;;;;5009394;28;20064;-67
2021/08/22 07:47:25;;;;;;;8.75;5.20;;;;;;;;;;5007032;28;20030;-63
2021/08/22 07:49:51;;;;;;;11.75;5.88;;;;;;;;;;5007149;28;20085;-81
2021/08/22 07:52:20;;;;;;;9.98;5.30;;;;;;;;;;5002255;28;20119;-72
2021/08/22 07:54:46;;;;;;;7.93;5.45;;;;;;;;;;5002549;28;20033;-78
2021/08/22 07:57:12;;;;;;;8.23;4.88;;;;;;;;;;5008442;28;20092;-73
2021/08/22 07:59:38;;;;;;;8.23;5.15;;;;;;;;;;5006499;28;20018;-77
2021/08/22 08:02:04;;;;;;;9.27;5.28;;;;;;;;;;5001558;28;20094;-72
2021/08/22 08:04:30;;;;;;;11.27;5.07;;;;;;;;;;5002210;28;20097;-77
2021/08/22 08:06:56;;;;;;;9.82;5.13;;;;;;;;;;5009880;28;20072;-78
2021/08/22 08:09:23;;;;;;;7.57;4.53;;;;;;;;;;5009371;28;20026;-74
2021/08/22 08:11:49;;;;;;;9.38;4.68;;;;;;;;;;4980242;28;20058;-80
2021/08/22 08:14:15;;;;;;;7.88;4.40;;;;;;;;;;5005472;28;20472;-78
2021/08/22 08:16:41;;;;;;;10.23;4.38;;;;;;;;;;5007247;28;20026;-68
2021/08/22 08:19:07;;;;;;;7.65;4.30;;;;;;;;;;5008456;28;20033;-80
2021/08/22 08:21:33;;;;;;;7.97;3.85;;;;;;;;;;5007514;28;20037;-79
2021/08/22 08:23:59;;;;;;;8.35;4.28;;;;;;;;;;5010701;28;20105;-77
2021/08/22 08:26:25;;;;;;;7.57;3.88;;;;;;;;;;5010180;28;20395;-68
2021/08/22 08:28:51;;;;;;;8.65;3.80;;;;;;;;;;5003996;28;20431;-73
2021/08/22 08:31:17;;;;;;;5.93;3.90;;;;;;;;;;5009328;28;20030;-79
2021/08/22 08:33:43;;;;;;;10.27;3.70;;;;;;;;;;5015020;28;20502;-73
2021/08/22 08:36:09;;;;;;;6.40;3.75;;;;;;;;;;5009136;28;20080;-76
2021/08/22 08:38:36;;;;;;;7.18;4.30;;;;;;;;;;5008854;28;20026;-76
2021/08/22 08:41:03;;;;;;;6.03;3.83;;;;;;;;;;5004728;28;20112;-71
2021/08/22 08:43:30;;;;;;;8.32;4.70;;;;;;;;;;5000024;28;20034;-73
2021/08/22 08:46:16;;;;;;;7.07;4.20;;;;;;;;;;5010246;28;20045;-74
2021/08/22 08:48:45;;;;;;;8.65;4.32;;;;;;;;;;4933394;29;20047;-72
2021/08/22 08:51:20;;;;;;;8.90;4.60;;;;;;;;;;4925368;29;20038;-85
2021/08/22 08:53:47;;;;;;;8.30;4.65;;;;;;;;;;4926025;29;20530;-82
2021/08/22 08:56:14;;;;;;;7.53;4.38;;;;;;;;;;4924561;29;20032;-89
2021/08/22 08:58:40;;;;;;;13.80;4.80;;;;;;;;;;4932332;29;20414;-72
2021/08/22 09:01:06;;;;;;;7.68;4.30;;;;;;;;;;4927847;29;20093;-81
2021/08/22 09:03:36;;;;;;;16.35;4.47;;;;;;;;;;4925689;29;20123;-88
2021/08/22 09:06:05;;;;;;;7.38;4.65;;;;;;;;;;4924431;29;20027;-80
2021/08/22 09:08:49;;;;;;;9.95;4.60;;;;;;;;;;4925686;29;20028;-79
2021/08/22 09:11:34;;;;;;;7.35;4.47;;;;;;;;;;4926662;29;20060;-78
2021/08/22 09:14:18;;;;;;;66.68;7.35;;;;;;;;;;4927943;29;20112;-80
2021/08/22 09:17:03;;;;;;;7.70;4.22;;;;;;;;;;4928133;29;20135;-78
2021/08/22 09:19:47;;;;;;;16.20;4.22;;;;;;;;;;4920511;29;20115;-79
2021/08/22 09:22:16;;;;;;;18.27;4.68;;;;;;;;;;4924541;29;20048;-86
2021/08/22 09:25:04;;;;;;;5.50;3.85;;;;;;;;;;4930503;28;20053;-85
2021/08/22 09:27:48;;;;;;;5.43;3.80;;;;;;;;;;5007446;28;20049;-87
2021/08/22 09:30:17;;;;;;;8.15;4.13;;;;;;;;;;5007582;28;20030;-85
2021/08/22 09:33:02;;;;;;;7.05;3.60;;;;;;;;;;4987630;28;20549;-85
2021/08/22 09:35:47;;;;;;;11.75;4.30;;;;;;;;;;4991980;28;20077;-62
2021/08/22 09:38:36;;;;;;;6.15;3.97;;;;;;;;;;5010240;28;20032;-94
2021/08/22 09:41:17;;;;;;;7.05;3.53;;;;;;;;;;5009333;28;20053;-83
2021/08/22 09:43:56;;;;;;;7.53;4.10;;;;;;;;;;5007169;28;20025;-82
2021/08/22 09:46:40;;;;;;;6.07;3.42;;;;;;;;;;5001459;28;20037;-86
2021/08/22 09:49:27;;;;;;;6.78;3.70;;;;;;;;;;5007850;28;20030;-76
2021/08/22 09:52:11;;;;;;;4.88;3.80;;;;;;;;;;4997572;28;20026;-85
2021/08/22 09:54:47;;;;;;;5.18;3.40;;;;;;;;;;4987823;28;20407;-75
2021/08/22 09:57:32;;;;;;;7.30;3.58;;;;;;;;;;5002764;28;20539;-83
2021/08/22 10:00:01;;;;;;;6.72;3.78;;;;;;;;;;5002411;28;20022;-83
2021/08/22 10:02:36;;;;;;;6.00;3.55;;;;;;;;;;5008768;28;20029;-81
2021/08/22 10:05:23;;;;;;;6.78;3.90;;;;;;;;;;5003402;28;20101;-82
2021/08/22 10:07:55;;;;;;;5.05;3.50;;;;;;;;;;4991808;28;20157;-80
2021/08/22 10:10:33;;;;;;;8.05;3.97;;;;;;;;;;5003716;28;20023;-84
2021/08/22 10:12:59;;;;;;;7.43;3.67;;;;;;;;;;4988987;28;20586;-85
2021/08/22 10:15:25;;;;;;;5.75;3.45;;;;;;;;;;4988969;28;20029;-72
2021/08/22 10:17:51;;;;;;;5.68;3.65;;;;;;;;;;5010509;28;20101;-77
2021/08/22 10:20:18;;;;;;;7.72;3.47;;;;;;;;;;5005987;28;20026;-83
2021/08/22 10:22:47;;;;;;;9.75;3.60;;;;;;;;;;5015528;28;20042;-70
2021/08/22 10:25:19;;;;;;;5.20;3.38;;;;;;;;;;5009270;28;20496;-64
2021/08/22 10:27:51;;;;;;;6.20;3.30;;;;;;;;;;5008976;28;20068;-87
2021/08/22 10:30:21;;;;;;;4.57;3.00;;;;;;;;;;5006573;28;20476;-63
2021/08/22 10:32:59;;;;;;;5.28;3.38;;;;;;;;;;5009814;28;20392;-82
2021/08/22 10:35:26;;;;;;;6.25;3.50;;;;;;;;;;5010659;28;20034;-78
2021/08/22 10:37:53;;;;;;;5.00;3.60;;;;;;;;;;5007779;28;20093;-73
2021/08/22 10:40:31;;;;;;;4.30;3.33;;;;;;;;;;5008148;28;20033;-77
2021/08/22 10:42:57;;;;;;;6.88;3.47;;;;;;;;;;5011366;28;20500;-73
2021/08/22 10:45:39;;;;;;;4.20;3.40;;;;;;;;;;5012605;28;20085;-64
2021/08/22 10:48:07;;;;;;;5.85;3.33;;;;;;;;;;5009975;28;20045;-62
2021/08/22 10:50:52;;;;;;;4.80;3.70;;;;;;;;;;5007412;28;20054;-61
2021/08/22 10:53:24;;;;;;;10.63;4.15;;;;;;;;;;5001851;28;20041;-62
2021/08/22 10:55:51;;;;;;;5.53;3.55;;;;;;;;;;5011478;28;20038;-63
2021/08/22 10:58:17;;;;;;;9.48;3.90;;;;;;;;;;5009457;28;20037;-64
2021/08/22 11:00:43;;;;;;;6.78;3.67;;;;;;;;;;5005172;28;20054;-64
2021/08/22 11:03:18;;;;;;;4.68;3.55;;;;;;;;;;5009481;28;20038;-66
2021/08/22 11:05:45;;;;;;;4.97;3.40;;;;;;;;;;5005966;28;20045;-66
2021/08/22 11:08:21;;;;;;;4.28;3.20;;;;;;;;;;5010503;28;20041;-62
2021/08/22 11:11:02;;;;;;;3.90;3.47;;;;;;;;;;4999090;28;20027;-64
2021/08/22 11:13:29;;;;;;;4.97;3.28;;;;;;;;;;4998328;28;20037;-65
2021/08/22 11:15:56;;;;;;;5.85;3.65;;;;;;;;;;5011436;28;20049;-63
2021/08/22 11:18:22;;;;;;;5.80;3.40;;;;;;;;;;5009394;28;20030;-64
2021/08/22 11:20:48;;;;;;;4.70;3.50;;;;;;;;;;4999021;28;20022;-66
2021/08/22 11:23:18;;;;;;;5.70;3.60;;;;;;;;;;5004910;28;20488;-67
2021/08/22 11:25:45;;;;;;;4.85;3.78;;;;;;;;;;5010113;28;20034;-65
2021/08/22 11:28:15;;;;;;;14.63;3.80;;;;;;;;;;5009810;28;20101;-66
2021/08/22 11:30:42;;;;;;;7.03;3.92;;;;;;;;;;5007975;28;20101;-63
2021/08/22 11:33:10;;;;;;;4.18;3.17;;;;;;;;;;5005541;28;20077;-61
2021/08/22 11:35:49;;;;;;;4.10;3.47;;;;;;;;;;5010852;28;20033;-66
2021/08/22 11:38:18;;;;;;;6.65;3.63;;;;;;;;;;5010787;28;20112;-66
2021/08/22 11:40:44;;;;;;;6.20;3.78;;;;;;;;;;5002989;28;20030;-65
2021/08/22 11:43:11;;;;;;;4.00;3.45;;;;;;;;;;4999638;28;20514;-65
2021/08/22 11:45:39;;;;;;;7.72;3.88;;;;;;;;;;4998732;28;20101;-65
2021/08/22 11:48:06;;;;;;;6.78;3.75;;;;;;;;;;5000717;28;20045;-65
2021/08/22 11:50:33;;;;;;;5.35;3.63;;;;;;;;;;5000008;28;20022;-67
2021/08/22 11:53:01;;;;;;;11.20;4.10;;;;;;;;;;5010439;28;20038;-67
2021/08/22 11:55:32;;;;;;;8.25;3.83;;;;;;;;;;5007286;28;20041;-65
2021/08/22 11:58:14;;;;;;;4.70;3.72;;;;;;;;;;5008239;28;20091;-64
2021/08/22 12:00:46;;;;;;;8.47;4.50;;;;;;;;;;5006322;28;20026;-63
2021/08/22 12:03:16;;;;;;;6.85;3.60;;;;;;;;;;5006768;28;20288;-65
2021/08/22 12:05:52;;;;;;;6.80;3.85;;;;;;;;;;4999532;28;20611;-62
2021/08/22 12:08:18;;;;;;;10.48;4.03;;;;;;;;;;5000185;28;20029;-67
2021/08/22 12:10:44;;;;;;;6.28;3.58;;;;;;;;;;5007126;28;20026;-65
2021/08/22 12:13:14;;;;;;;5.47;3.35;;;;;;;;;;5018342;28;21700;-66
2021/08/22 12:15:40;;;;;;;5.20;3.67;;;;;;;;;;4983643;28;20034;-62
2021/08/22 12:18:32;;;;;;;5.25;3.70;;;;;;;;;;5010975;28;20034;-66
2021/08/22 12:21:04;;;;;;;4.90;3.78;;;;;;;;;;5000752;28;20046;-64
2021/08/22 12:23:32;;;;;;;7.05;4.28;;;;;;;;;;5014118;28;20408;-66
2021/08/22 12:26:16;;;;;;;8.13;3.95;;;;;;;;;;5013964;28;20022;-62
2021/08/22 12:28:43;;;;;;;7.07;3.40;;;;;;;;;;5006035;28;20160;-64
2021/08/22 12:31:10;;;;;;;21.65;4.63;;;;;;;;;;4981368;28;20496;-62
2021/08/22 12:33:43;;;;;;;6.65;3.95;;;;;;;;;;5000661;28;20026;-64
2021/08/22 12:36:14;;;;;;;6.82;4.50;;;;;;;;;;5013196;28;20040;-61
2021/08/22 12:38:42;;;;;;;6.55;3.50;;;;;;;;;;5001871;28;20495;-63
2021/08/22 12:41:26;;;;;;;5.30;3.38;;;;;;;;;;5001792;28;20501;-63
2021/08/22 12:43:56;;;;;;;6.43;3.70;;;;;;;;;;5008720;28;20038;-66
2021/08/22 12:46:26;;;;;;;7.50;4.10;;;;;;;;;;5003991;28;20022;-66
2021/08/22 12:48:53;;;;;;;11.50;3.97;;;;;;;;;;5001433;28;20036;-62
2021/08/22 12:51:20;;;;;;;5.30;3.78;;;;;;;;;;5008334;28;20030;-63
2021/08/22 12:53:46;;;;;;;5.95;3.88;;;;;;;;;;5012020;28;20026;-67
2021/08/22 12:56:12;;;;;;;7.03;3.72;;;;;;;;;;5007015;28;20041;-65
2021/08/22 12:58:38;;;;;;;6.75;3.95;;;;;;;;;;5011482;28;20018;-63
2021/08/22 13:01:04;;;;;;;6.68;3.40;;;;;;;;;;5010859;28;20084;-66
2021/08/22 13:03:30;;;;;;;7.18;3.80;;;;;;;;;;5010287;28;20089;-66
2021/08/22 13:05:56;;;;;;;6.05;3.35;;;;;;;;;;5001634;28;20023;-67
2021/08/22 13:08:22;;;;;;;8.27;3.72;;;;;;;;;;5003398;28;20022;-62
2021/08/22 13:10:49;;;;;;;5.97;3.70;;;;;;;;;;5004808;28;20029;-67
2021/08/22 13:13:15;;;;;;;5.50;3.53;;;;;;;;;;5018176;28;20033;-67
2021/08/22 13:15:41;;;;;;;7.75;3.58;;;;;;;;;;4999958;28;20072;-64
2021/08/22 13:18:07;;;;;;;6.03;3.80;;;;;;;;;;5002798;28;20071;-65
2021/08/22 13:20:33;;;;;;;6.63;3.67;;;;;;;;;;5004223;28;20372;-65
2021/08/22 13:22:59;;;;;;;5.22;3.53;;;;;;;;;;5011909;28;20400;-60
2021/08/22 13:25:31;;;;;;;5.72;3.60;;;;;;;;;;4999856;28;20033;-61
2021/08/22 13:27:58;;;;;;;4.30;3.40;;;;;;;;;;5007279;28;20483;-65
2021/08/22 13:30:24;;;;;;;4.10;3.45;;;;;;;;;;4998707;28;20020;-65
2021/08/22 13:32:53;;;;;;;9.98;4.15;;;;;;;;;;5008437;28;20061;-61
2021/08/22 13:35:19;;;;;;;5.60;3.67;;;;;;;;;;5006184;28;20036;-62
2021/08/22 13:37:45;;;;;;;5.90;3.65;;;;;;;;;;5008346;28;20479;-65
2021/08/22 13:40:12;;;;;;;13.05;3.75;;;;;;;;;;5002044;28;20026;-63
2021/08/22 13:42:38;;;;;;;6.50;3.78;;;;;;;;;;5008472;28;20086;-63
2021/08/22 13:45:06;;;;;;;5.10;3.78;;;;;;;;;;5000793;28;20061;-60
2021/08/22 13:47:32;;;;;;;9.00;3.85;;;;;;;;;;5007129;28;20117;-63
2021/08/22 13:49:58;;;;;;;5.53;3.70;;;;;;;;;;5003357;28;20025;-63
2021/08/22 13:52:24;;;;;;;7.38;4.00;;;;;;;;;;5001913;28;20022;-64
2021/08/22 13:54:50;;;;;;;7.15;3.58;;;;;;;;;;5004070;28;20054;-62
2021/08/22 13:57:16;;;;;;;7.25;3.42;;;;;;;;;;5001134;28;20023;-64
2021/08/22 13:59:42;;;;;;;5.35;3.75;;;;;;;;;;5003375;28;20030;-60
2021/08/22 14:02:08;;;;;;;9.63;4.10;;;;;;;;;;4995554;28;20038;-63
2021/08/22 14:04:35;;;;;;;7.60;3.60;;;;;;;;;;5001129;28;20022;-61
2021/08/22 14:07:01;;;;;;;6.40;4.18;;;;;;;;;;4996965;28;20035;-67
2021/08/22 14:09:27;;;;;;;5.85;3.78;;;;;;;;;;4998365;28;20026;-67
2021/08/22 14:11:53;;;;;;;4.90;3.75;;;;;;;;;;4999778;28;20036;-62
2021/08/22 14:14:19;;;;;;;4.85;3.80;;;;;;;;;;5006654;28;20029;-66
2021/08/22 14:16:45;;;;;;;8.02;4.18;;;;;;;;;;5006639;28;20456;-66
2021/08/22 14:19:11;;;;;;;4.47;3.60;;;;;;;;;;5008987;28;20034;-65
2021/08/22 14:21:37;;;;;;;6.45;3.42;;;;;;;;;;5000249;28;20030;-65
2021/08/22 14:24:05;;;;;;;5.18;3.42;;;;;;;;;;5001900;28;20133;-66
2021/08/22 14:26:31;;;;;;;4.40;3.28;;;;;;;;;;4993723;28;20022;-65
2021/08/22 14:28:57;;;;;;;6.60;3.65;;;;;;;;;;5008731;28;20080;-67
2021/08/22 14:31:24;;;;;;;4.15;3.30;;;;;;;;;;5008876;28;20032;-66
2021/08/22 14:33:53;;;;;;;6.78;3.60;;;;;;;;;;5003339;28;20097;-66
2021/08/22 14:36:19;;;;;;;5.63;3.88;;;;;;;;;;5006464;28;20081;-66
2021/08/22 14:38:45;;;;;;;5.75;3.67;;;;;;;;;;5007430;28;20035;-65
2021/08/22 14:41:11;;;;;;;5.03;3.40;;;;;;;;;;5008718;28;20080;-67
2021/08/22 14:43:37;;;;;;;7.93;4.07;;;;;;;;;;4998041;28;20124;-66
2021/08/22 14:46:03;;;;;;;4.70;3.65;;;;;;;;;;5005381;28;20038;-67